Time;durP1;ratioP1;P1;durP2;ratioP2;P2;SDS_P1;SDS_P2;PMS_P1;PMS_P2;Temp;Humidity;BMP_temperature;BMP_pressure;BME280_temperature;BME280_humidity;BME280_pressure;Samples;Min_cycle;Max_cycle;Signal;HPM_P1;HPM_P2
2023/12/26 00:02:23;;;;;;;0.67;0.67;;;;;231.90;258443.00;;;;5073822;28;20214;-62
2023/12/26 00:04:51;;;;;;;0.70;0.70;;;;;231.90;258443.00;;;;5073936;28;20270;-62
2023/12/26 00:07:18;;;;;;;0.60;0.60;;;;;231.90;258443.00;;;;5073703;28;20270;-62
2023/12/26 00:09:46;;;;;;;0.93;0.93;;;;;231.90;258443.00;;;;5073766;28;20308;-62
2023/12/26 00:12:13;;;;;;;5.10;0.93;;;;;231.90;258443.00;;;;5073496;28;20219;-61
2023/12/26 00:14:44;;;;;;;0.77;0.77;;;;;231.90;258443.00;;;;5073808;28;20195;-61
2023/12/26 00:17:12;;;;;;;0.70;0.70;;;;;231.90;258443.00;;;;5073911;28;20673;-61
2023/12/26 00:19:39;;;;;;;0.50;0.50;;;;;231.90;258443.00;;;;5073484;28;20205;-62
2023/12/26 00:22:07;;;;;;;0.60;0.60;;;;;231.90;258443.00;;;;5073599;28;20712;-62
2023/12/26 00:24:34;;;;;;;0.80;0.80;;;;;231.90;258443.00;;;;5073597;28;20192;-62
2023/12/26 00:27:02;;;;;;;1.50;0.73;;;;;231.90;258443.00;;;;5074057;28;20195;-62
2023/12/26 00:29:30;;;;;;;0.83;0.83;;;;;231.90;258443.00;;;;5073974;28;20200;-62
2023/12/26 00:31:58;;;;;;;0.77;0.77;;;;;231.90;258443.00;;;;5073222;28;20339;-62
2023/12/26 00:34:26;;;;;;;1.07;1.00;;;;;231.90;258443.00;;;;5073483;28;20218;-62
2023/12/26 00:36:54;;;;;;;0.60;0.60;;;;;231.90;258443.00;;;;5073320;28;20285;-62
2023/12/26 00:39:21;;;;;;;0.90;0.90;;;;;231.90;258443.00;;;;5073436;28;20191;-63
2023/12/26 00:41:49;;;;;;;1.30;1.27;;;;;231.90;258443.00;;;;5073296;28;20214;-62
2023/12/26 00:44:16;;;;;;;2.27;0.93;;;;;231.90;258443.00;;;;5073165;28;20267;-62
2023/12/26 00:46:46;;;;;;;0.70;0.70;;;;;231.90;258443.00;;;;5073507;28;20197;-62
2023/12/26 00:49:15;;;;;;;0.63;0.63;;;;;231.90;258443.00;;;;5073201;28;20218;-62
2023/12/26 00:51:42;;;;;;;1.10;0.90;;;;;231.90;258443.00;;;;5073146;28;20578;-62
2023/12/26 00:54:09;;;;;;;1.37;0.87;;;;;231.90;258443.00;;;;5071968;28;20198;-62
2023/12/26 00:56:36;;;;;;;0.90;0.90;;;;;231.90;258443.00;;;;5073130;28;20318;-62
2023/12/26 00:59:04;;;;;;;0.60;0.60;;;;;231.90;258443.00;;;;5073249;28;20226;-62
2023/12/26 01:01:31;;;;;;;0.50;0.50;;;;;231.90;258443.00;;;;5073078;28;20197;-62
2023/12/26 01:03:59;;;;;;;0.70;0.70;;;;;231.90;258443.00;;;;5073112;28;20252;-62
2023/12/26 01:06:28;;;;;;;0.77;0.77;;;;;231.90;258443.00;;;;5073289;28;20187;-62
2023/12/26 01:08:55;;;;;;;0.80;0.80;;;;;231.90;258443.00;;;;5073308;28;20195;-62
2023/12/26 01:11:23;;;;;;;0.80;0.80;;;;;231.90;258443.00;;;;5072866;28;20199;-62
2023/12/26 01:13:50;;;;;;;0.50;0.50;;;;;231.90;258443.00;;;;5072939;28;20247;-62
2023/12/26 01:16:18;;;;;;;0.60;0.60;;;;;231.90;258443.00;;;;5072901;28;20669;-62
2023/12/26 01:18:46;;;;;;;1.10;1.10;;;;;231.90;258443.00;;;;5072939;28;20221;-62
2023/12/26 01:21:13;;;;;;;1.07;1.07;;;;;231.90;258443.00;;;;5072833;28;20277;-62
2023/12/26 01:23:42;;;;;;;0.77;0.77;;;;;231.90;258443.00;;;;5073022;28;20195;-63
2023/12/26 01:26:09;;;;;;;0.73;0.73;;;;;231.90;258443.00;;;;5072728;28;20187;-62
2023/12/26 01:28:37;;;;;;;0.60;0.60;;;;;231.90;258443.00;;;;5072699;28;20555;-62
2023/12/26 01:31:05;;;;;;;0.60;0.60;;;;;231.90;258443.00;;;;5072758;28;20188;-62
2023/12/26 01:33:32;;;;;;;0.70;0.70;;;;;231.90;258443.00;;;;5071219;28;20797;-62
2023/12/26 01:35:59;;;;;;;0.90;0.90;;;;;231.90;258443.00;;;;5071412;28;20193;-62
2023/12/26 01:38:27;;;;;;;0.87;0.87;;;;;231.90;258443.00;;;;5073264;28;20195;-62
2023/12/26 01:40:56;;;;;;;0.60;0.60;;;;;231.90;258443.00;;;;5072989;28;20200;-62
2023/12/26 01:43:23;;;;;;;0.50;0.50;;;;;231.90;258443.00;;;;5072795;28;20713;-62
2023/12/26 01:45:57;;;;;;;0.50;0.50;;;;;231.90;258443.00;;;;5072679;28;20187;-62
2023/12/26 01:48:27;;;;;;;0.73;0.73;;;;;231.90;258443.00;;;;5073203;28;20202;-62
2023/12/26 01:50:55;;;;;;;0.70;0.70;;;;;231.90;258443.00;;;;5072651;28;20200;-62
2023/12/26 01:53:22;;;;;;;0.73;0.70;;;;;231.90;258443.00;;;;5072411;28;20244;-62
2023/12/26 01:55:52;;;;;;;0.60;0.60;;;;;231.90;258443.00;;;;5072746;28;20471;-62
2023/12/26 01:58:22;;;;;;;0.70;0.70;;;;;231.90;258443.00;;;;5072700;28;20199;-62
2023/12/26 02:00:50;;;;;;;0.77;0.77;;;;;231.90;258443.00;;;;5072425;28;20198;-62
2023/12/26 02:03:17;;;;;;;0.50;0.50;;;;;231.90;258443.00;;;;5072383;28;20210;-62
2023/12/26 02:05:47;;;;;;;3.03;1.03;;;;;231.90;258443.00;;;;5072704;28;20205;-62
2023/12/26 02:08:15;;;;;;;0.70;0.70;;;;;231.90;258443.00;;;;5072412;28;20564;-62
2023/12/26 02:10:42;;;;;;;0.70;0.70;;;;;231.90;258443.00;;;;5072660;28;20194;-62
2023/12/26 02:13:10;;;;;;;0.60;0.60;;;;;231.90;258443.00;;;;5075112;28;20695;-63
2023/12/26 02:15:39;;;;;;;0.60;0.60;;;;;231.90;258443.00;;;;5076422;28;20683;-62
2023/12/26 02:18:07;;;;;;;0.73;0.73;;;;;231.90;258443.00;;;;5076026;28;20569;-62
2023/12/26 02:20:34;;;;;;;0.50;0.50;;;;;231.90;258443.00;;;;5076307;28;20205;-62
2023/12/26 02:23:02;;;;;;;1.57;0.77;;;;;231.90;258443.00;;;;5076022;28;20219;-61
2023/12/26 02:25:31;;;;;;;0.63;0.63;;;;;231.90;258443.00;;;;5075697;28;20261;-61
2023/12/26 02:28:01;;;;;;;0.60;0.60;;;;;231.90;258443.00;;;;5076366;28;20198;-61
2023/12/26 02:30:29;;;;;;;0.60;0.60;;;;;231.90;258443.00;;;;5076039;28;20194;-62
2023/12/26 02:32:59;;;;;;;0.93;0.93;;;;;231.90;258443.00;;;;5075634;28;20678;-63
2023/12/26 02:35:27;;;;;;;0.70;0.70;;;;;231.90;258443.00;;;;5074324;28;20285;-62
2023/12/26 02:37:55;;;;;;;2.23;0.90;;;;;231.90;258443.00;;;;5074219;28;20202;-62
2023/12/26 02:40:22;;;;;;;0.60;0.60;;;;;231.90;258443.00;;;;5075498;28;20647;-62
2023/12/26 02:42:54;;;;;;;0.50;0.50;;;;;231.90;258443.00;;;;5075629;28;20218;-61
2023/12/26 02:45:22;;;;;;;0.63;0.63;;;;;231.90;258443.00;;;;5075373;28;20239;-62
2023/12/26 02:47:49;;;;;;;0.60;0.60;;;;;231.90;258443.00;;;;5075360;28;20570;-62
2023/12/26 02:50:16;;;;;;;0.60;0.60;;;;;231.90;258443.00;;;;5075317;28;20191;-61
2023/12/26 02:52:44;;;;;;;0.60;0.60;;;;;231.90;258443.00;;;;5075371;28;20586;-61
2023/12/26 02:55:12;;;;;;;0.70;0.70;;;;;231.90;258443.00;;;;5075404;28;20206;-61
2023/12/26 02:57:39;;;;;;;0.70;0.70;;;;;231.90;258443.00;;;;5075467;28;20702;-62
2023/12/26 03:00:10;;;;;;;0.90;0.90;;;;;231.90;258443.00;;;;5075061;28;20218;-61
2023/12/26 03:02:37;;;;;;;0.53;0.53;;;;;231.90;258443.00;;;;5074940;28;20216;-61
2023/12/26 03:05:05;;;;;;;0.60;0.60;;;;;231.90;258443.00;;;;5075024;28;20191;-61
2023/12/26 03:07:32;;;;;;;3.03;0.80;;;;;231.90;258443.00;;;;5075087;28;20194;-61
2023/12/26 03:10:04;;;;;;;0.60;0.60;;;;;231.90;258443.00;;;;5073695;28;20574;-61
2023/12/26 03:12:32;;;;;;;0.60;0.60;;;;;231.90;258443.00;;;;5075299;28;20223;-61
2023/12/26 03:14:59;;;;;;;0.90;0.90;;;;;231.90;258443.00;;;;5075094;28;20198;-61
2023/12/26 03:17:29;;;;;;;0.63;0.63;;;;;231.90;258443.00;;;;5074803;28;20191;-61
2023/12/26 03:19:56;;;;;;;0.70;0.70;;;;;231.90;258443.00;;;;5077930;28;20619;-62
2023/12/26 03:22:24;;;;;;;0.80;0.80;;;;;231.90;258443.00;;;;5074947;28;20222;-61
2023/12/26 03:24:51;;;;;;;0.83;0.83;;;;;231.90;258443.00;;;;5073535;28;20188;-61
2023/12/26 03:27:19;;;;;;;0.80;0.80;;;;;231.90;258443.00;;;;5074533;28;20226;-61
2023/12/26 03:29:46;;;;;;;0.70;0.70;;;;;231.90;258443.00;;;;5074636;28;20205;-61
2023/12/26 03:32:14;;;;;;;1.63;1.30;;;;;231.90;258443.00;;;;5074377;28;20242;-61
2023/12/26 03:34:43;;;;;;;0.70;0.70;;;;;231.90;258443.00;;;;5074310;28;20225;-61
2023/12/26 03:37:10;;;;;;;1.10;1.10;;;;;231.90;258443.00;;;;5074874;28;20282;-62
2023/12/26 03:39:38;;;;;;;0.93;0.93;;;;;231.90;258443.00;;;;5074531;28;20191;-62
2023/12/26 03:42:06;;;;;;;0.50;0.50;;;;;231.90;258443.00;;;;5074352;28;20211;-62
2023/12/26 03:44:34;;;;;;;1.10;1.10;;;;;231.90;258443.00;;;;5074641;28;20194;-62
2023/12/26 03:47:01;;;;;;;0.80;0.80;;;;;231.90;258443.00;;;;5074118;28;20651;-62
2023/12/26 03:49:29;;;;;;;0.67;0.67;;;;;231.90;258443.00;;;;5072937;28;20209;-62
2023/12/26 03:51:58;;;;;;;0.67;0.67;;;;;231.90;258443.00;;;;5074255;28;20210;-61
2023/12/26 03:54:25;;;;;;;1.27;1.10;;;;;231.90;258443.00;;;;5073994;28;20215;-61
2023/12/26 03:56:53;;;;;;;0.60;0.60;;;;;231.90;258443.00;;;;5074143;28;20195;-61
2023/12/26 03:59:20;;;;;;;0.50;0.50;;;;;231.90;258443.00;;;;5072653;28;20221;-61
2023/12/26 04:01:48;;;;;;;1.17;1.10;;;;;231.90;258443.00;;;;5074055;28;20221;-62
2023/12/26 04:04:15;;;;;;;0.90;0.90;;;;;231.90;258443.00;;;;5074014;28;20194;-61
2023/12/26 04:06:43;;;;;;;0.63;0.63;;;;;231.90;258443.00;;;;5073721;28;20275;-61
2023/12/26 04:09:14;;;;;;;0.50;0.50;;;;;231.90;258443.00;;;;5073905;28;20741;-61
2023/12/26 04:11:42;;;;;;;7.37;1.23;;;;;231.90;258443.00;;;;5074375;28;20218;-61
2023/12/26 04:14:09;;;;;;;1.00;1.00;;;;;231.90;258443.00;;;;5073819;28;20219;-61
2023/12/26 04:16:37;;;;;;;3.50;1.53;;;;;231.90;258443.00;;;;5072235;28;20197;-61
2023/12/26 04:19:04;;;;;;;0.70;0.70;;;;;231.90;258443.00;;;;5073590;28;20210;-61
2023/12/26 04:21:32;;;;;;;0.67;0.67;;;;;231.90;258443.00;;;;5073609;28;20198;-61
2023/12/26 04:23:59;;;;;;;1.20;1.20;;;;;231.90;258443.00;;;;5073482;28;20192;-61
2023/12/26 04:26:28;;;;;;;1.80;1.03;;;;;231.90;258443.00;;;;5072201;28;20196;-62
2023/12/26 04:28:56;;;;;;;0.60;0.60;;;;;231.90;258443.00;;;;5073673;28;20199;-62
2023/12/26 04:31:23;;;;;;;0.60;0.60;;;;;231.90;258443.00;;;;5073399;28;20277;-62
2023/12/26 04:33:51;;;;;;;1.03;1.03;;;;;231.90;258443.00;;;;5073452;28;20221;-62
2023/12/26 04:36:18;;;;;;;0.80;0.80;;;;;231.90;258443.00;;;;5073004;28;20196;-62
2023/12/26 04:38:46;;;;;;;0.70;0.70;;;;;231.90;258443.00;;;;5073315;28;20191;-61
2023/12/26 04:41:13;;;;;;;0.63;0.63;;;;;231.90;258443.00;;;;5073251;28;20673;-61
2023/12/26 04:43:42;;;;;;;0.80;0.80;;;;;231.90;258443.00;;;;5073173;28;20195;-61
2023/12/26 04:46:17;;;;;;;0.60;0.60;;;;;231.90;258443.00;;;;5073265;28;20195;-62
2023/12/26 04:48:45;;;;;;;0.90;0.90;;;;;231.90;258443.00;;;;5073909;28;20206;-62
2023/12/26 04:51:16;;;;;;;0.90;0.90;;;;;231.90;258443.00;;;;5073346;28;20198;-62
2023/12/26 04:53:44;;;;;;;6.43;0.90;;;;;231.90;258443.00;;;;5073731;28;20252;-61
2023/12/26 04:56:17;;;;;;;0.77;0.77;;;;;231.90;258443.00;;;;5073178;28;20195;-61
2023/12/26 04:58:47;;;;;;;0.57;0.57;;;;;231.90;258443.00;;;;5073615;28;20673;-61
2023/12/26 05:01:14;;;;;;;0.80;0.80;;;;;231.90;258443.00;;;;5073416;28;20195;-62
2023/12/26 05:03:42;;;;;;;2.10;1.23;;;;;231.90;258443.00;;;;5073039;28;20501;-61
2023/12/26 05:06:09;;;;;;;0.53;0.53;;;;;231.90;258443.00;;;;5073526;28;20278;-61
2023/12/26 05:08:39;;;;;;;1.03;1.03;;;;;231.90;258443.00;;;;5073159;28;20198;-61
2023/12/26 05:11:06;;;;;;;0.50;0.50;;;;;231.90;258443.00;;;;5073273;28;20195;-61
2023/12/26 05:13:34;;;;;;;2.57;1.47;;;;;231.90;258443.00;;;;5072936;28;20223;-61
2023/12/26 05:16:04;;;;;;;0.70;0.70;;;;;231.90;258443.00;;;;5072862;28;20190;-62
2023/12/26 05:18:32;;;;;;;0.60;0.60;;;;;231.90;258443.00;;;;5072817;28;20707;-62
2023/12/26 05:21:00;;;;;;;0.50;0.50;;;;;231.90;258443.00;;;;5071500;28;20249;-62
2023/12/26 05:23:28;;;;;;;0.77;0.77;;;;;231.90;258443.00;;;;5073031;28;20237;-61
2023/12/26 05:25:55;;;;;;;0.57;0.57;;;;;231.90;258443.00;;;;5072873;28;20222;-61
2023/12/26 05:28:23;;;;;;;0.67;0.67;;;;;231.90;258443.00;;;;5073032;28;20191;-62
2023/12/26 05:30:50;;;;;;;0.60;0.60;;;;;231.90;258443.00;;;;5072808;28;20192;-62
2023/12/26 05:33:19;;;;;;;1.37;1.27;;;;;231.90;258443.00;;;;5072862;28;20276;-62
2023/12/26 05:35:47;;;;;;;2.07;0.73;;;;;231.90;258443.00;;;;5073097;28;20199;-61
2023/12/26 05:38:13;;;;;;;0.60;0.60;;;;;231.90;258443.00;;;;5072748;28;20187;-62
2023/12/26 05:40:40;;;;;;;0.60;0.60;;;;;231.90;258443.00;;;;5072720;28;20207;-62
2023/12/26 05:43:08;;;;;;;0.77;0.77;;;;;231.90;258443.00;;;;5072415;28;20707;-61
2023/12/26 05:45:35;;;;;;;1.80;0.80;;;;;231.90;258443.00;;;;5072654;28;20229;-61
2023/12/26 05:48:03;;;;;;;0.90;0.90;;;;;231.90;258443.00;;;;5075608;28;20202;-61
2023/12/26 05:50:32;;;;;;;3.93;1.10;;;;;231.90;258443.00;;;;5076797;28;20196;-62
2023/12/26 05:52:59;;;;;;;0.60;0.60;;;;;231.90;258443.00;;;;5076375;28;20222;-61
2023/12/26 05:55:27;;;;;;;0.90;0.90;;;;;231.90;258443.00;;;;5076192;28;20215;-61
2023/12/26 05:57:54;;;;;;;0.90;0.90;;;;;231.90;258443.00;;;;5076487;28;20191;-62
2023/12/26 06:00:22;;;;;;;0.60;0.60;;;;;231.90;258443.00;;;;5076474;28;20194;-61
2023/12/26 06:02:49;;;;;;;3.40;1.20;;;;;231.90;258443.00;;;;5076134;28;20250;-61
2023/12/26 06:05:17;;;;;;;0.60;0.60;;;;;231.90;258443.00;;;;5076102;28;20199;-61
2023/12/26 06:07:46;;;;;;;0.77;0.77;;;;;231.90;258443.00;;;;5076226;28;20195;-61
2023/12/26 06:10:14;;;;;;;2.40;1.20;;;;;231.90;258443.00;;;;5076248;28;20602;-62
2023/12/26 06:12:41;;;;;;;0.80;0.80;;;;;231.90;258443.00;;;;5075913;28;20214;-62
2023/12/26 06:15:09;;;;;;;1.90;0.97;;;;;231.90;258443.00;;;;5076285;28;20536;-61
2023/12/26 06:17:37;;;;;;;0.60;0.60;;;;;231.90;258443.00;;;;5075772;28;20574;-61
2023/12/26 06:20:05;;;;;;;1.10;1.00;;;;;231.90;258443.00;;;;5076405;28;20600;-61
2023/12/26 06:22:32;;;;;;;0.80;0.80;;;;;231.90;258443.00;;;;5075798;28;20216;-62
2023/12/26 06:25:02;;;;;;;0.80;0.80;;;;;231.90;258443.00;;;;5075775;28;20197;-62
2023/12/26 06:27:29;;;;;;;0.50;0.50;;;;;231.90;258443.00;;;;5075959;28;20549;-62
2023/12/26 06:29:57;;;;;;;10.30;2.20;;;;;231.90;258443.00;;;;5076538;28;20643;-62
2023/12/26 06:32:25;;;;;;;0.90;0.90;;;;;231.90;258443.00;;;;5075590;28;20686;-62
2023/12/26 06:34:52;;;;;;;0.60;0.60;;;;;231.90;258443.00;;;;5075745;28;20234;-62
2023/12/26 06:37:20;;;;;;;0.60;0.60;;;;;231.90;258443.00;;;;5075816;28;20196;-62
2023/12/26 06:39:47;;;;;;;0.70;0.70;;;;;231.90;258443.00;;;;5074308;28;20195;-62
2023/12/26 06:42:16;;;;;;;0.60;0.60;;;;;231.90;258443.00;;;;5075693;28;20218;-62
2023/12/26 06:44:43;;;;;;;2.33;1.27;;;;;231.90;258443.00;;;;5075839;28;20213;-62
2023/12/26 06:47:13;;;;;;;1.23;1.23;;;;;231.90;258443.00;;;;5075322;28;20191;-62
2023/12/26 06:49:44;;;;;;;0.77;0.77;;;;;231.90;258443.00;;;;5075513;28;20191;-61
2023/12/26 06:52:14;;;;;;;1.33;1.23;;;;;231.90;258443.00;;;;5075578;28;20215;-62
2023/12/26 06:54:42;;;;;;;1.00;1.00;;;;;231.90;258443.00;;;;5075830;28;20246;-62
2023/12/26 06:57:15;;;;;;;0.70;0.70;;;;;231.90;258443.00;;;;5075230;28;20199;-62
2023/12/26 06:59:44;;;;;;;0.80;0.80;;;;;231.90;258443.00;;;;5075053;28;20217;-62
2023/12/26 07:02:12;;;;;;;2.07;1.43;;;;;231.90;258443.00;;;;5075444;28;20211;-62
2023/12/26 07:04:40;;;;;;;0.60;0.60;;;;;231.90;258443.00;;;;5075137;28;20198;-61
2023/12/26 07:07:08;;;;;;;1.40;1.00;;;;;231.90;258443.00;;;;5075287;28;20196;-61
2023/12/26 07:09:35;;;;;;;0.60;0.60;;;;;231.90;258443.00;;;;5075243;28;20198;-61
2023/12/26 07:12:03;;;;;;;0.50;0.50;;;;;231.90;258443.00;;;;5075459;28;20577;-61
2023/12/26 07:14:30;;;;;;;1.70;0.67;;;;;231.90;258443.00;;;;5074876;28;20222;-61
2023/12/26 07:16:59;;;;;;;0.60;0.60;;;;;231.90;258443.00;;;;5075067;28;20193;-61
2023/12/26 07:19:29;;;;;;;0.97;0.97;;;;;231.90;258443.00;;;;5074787;28;20205;-62
2023/12/26 07:21:57;;;;;;;1.80;0.90;;;;;231.90;258443.00;;;;5074638;28;20229;-63
2023/12/26 07:24:24;;;;;;;0.70;0.70;;;;;231.90;258443.00;;;;5074791;28;20187;-62
2023/12/26 07:26:52;;;;;;;0.80;0.80;;;;;231.90;258443.00;;;;5074924;28;20196;-62
2023/12/26 07:29:19;;;;;;;0.60;0.60;;;;;231.90;258443.00;;;;5074606;28;20207;-62
2023/12/26 07:31:47;;;;;;;2.57;1.03;;;;;231.90;258443.00;;;;5074753;28;20236;-62
2023/12/26 07:34:15;;;;;;;0.70;0.70;;;;;231.90;258443.00;;;;5074737;28;20686;-62
2023/12/26 07:36:43;;;;;;;0.73;0.73;;;;;231.90;258443.00;;;;5074437;28;20654;-62
2023/12/26 07:39:10;;;;;;;0.77;0.77;;;;;231.90;258443.00;;;;5074345;28;20194;-62
2023/12/26 07:41:38;;;;;;;0.67;0.67;;;;;231.90;258443.00;;;;5074575;28;20208;-62
2023/12/26 07:44:05;;;;;;;0.67;0.67;;;;;231.90;258443.00;;;;5074473;28;20281;-62
2023/12/26 07:46:33;;;;;;;0.60;0.60;;;;;231.90;258443.00;;;;5074229;28;20203;-62
2023/12/26 07:49:01;;;;;;;0.80;0.80;;;;;231.90;258443.00;;;;5074161;28;20194;-63
2023/12/26 07:51:30;;;;;;;0.93;0.93;;;;;231.90;258443.00;;;;5074317;28;20198;-62
2023/12/26 07:53:59;;;;;;;3.80;1.57;;;;;231.90;258443.00;;;;5073936;28;20218;-61
2023/12/26 07:56:27;;;;;;;0.53;0.53;;;;;231.90;258443.00;;;;5074373;28;20500;-60
2023/12/26 07:58:55;;;;;;;2.93;1.13;;;;;231.90;258443.00;;;;5073867;28;20196;-61
2023/12/26 08:01:24;;;;;;;0.60;0.60;;;;;231.90;258443.00;;;;5074344;28;20201;-61
2023/12/26 08:03:51;;;;;;;0.90;0.90;;;;;231.90;258443.00;;;;5073838;28;20227;-60
2023/12/26 08:06:19;;;;;;;0.90;0.90;;;;;231.90;258443.00;;;;5073850;28;20205;-61
2023/12/26 08:08:48;;;;;;;0.90;0.90;;;;;231.90;258443.00;;;;5074041;28;20200;-60
2023/12/26 08:11:15;;;;;;;1.40;1.23;;;;;231.90;258443.00;;;;5071929;28;20226;-60
2023/12/26 08:13:44;;;;;;;0.70;0.70;;;;;231.90;258443.00;;;;5073883;28;20539;-61
2023/12/26 08:16:10;;;;;;;5.03;0.80;;;;;231.90;258443.00;;;;5073579;28;20250;-60
2023/12/26 08:18:38;;;;;;;0.90;0.90;;;;;231.90;258443.00;;;;5073739;28;20211;-61
2023/12/26 08:21:05;;;;;;;0.87;0.87;;;;;231.90;258443.00;;;;5074098;28;20195;-61
2023/12/26 08:23:35;;;;;;;0.87;0.87;;;;;231.90;258443.00;;;;5074350;28;20211;-61
2023/12/26 08:26:06;;;;;;;1.27;1.17;;;;;231.90;258443.00;;;;5074417;28;20196;-62
2023/12/26 08:28:33;;;;;;;0.80;0.80;;;;;231.90;258443.00;;;;5073590;28;20198;-61
2023/12/26 08:31:01;;;;;;;0.70;0.70;;;;;231.90;258443.00;;;;5073783;28;20201;-61
2023/12/26 08:33:29;;;;;;;0.77;0.77;;;;;231.90;258443.00;;;;5073628;28;20290;-61
2023/12/26 08:35:57;;;;;;;1.13;0.90;;;;;231.90;258443.00;;;;5073368;28;20290;-61
2023/12/26 08:38:24;;;;;;;0.60;0.60;;;;;231.90;258443.00;;;;5073757;28;20191;-61
2023/12/26 08:40:52;;;;;;;0.70;0.70;;;;;231.90;258443.00;;;;5072380;28;20535;-62
2023/12/26 08:43:21;;;;;;;0.87;0.87;;;;;231.90;258443.00;;;;5073194;28;20211;-61
2023/12/26 08:45:48;;;;;;;0.70;0.70;;;;;231.90;258443.00;;;;5073120;28;20191;-61
2023/12/26 08:48:16;;;;;;;0.53;0.53;;;;;231.90;258443.00;;;;5073147;28;20192;-61
2023/12/26 08:50:43;;;;;;;0.63;0.63;;;;;231.90;258443.00;;;;5073082;28;20567;-61
2023/12/26 08:53:11;;;;;;;0.87;0.87;;;;;231.90;258443.00;;;;5073072;28;20222;-62
2023/12/26 08:55:38;;;;;;;0.70;0.70;;;;;231.90;258443.00;;;;5073323;28;20222;-61
2023/12/26 08:58:06;;;;;;;1.00;0.93;;;;;231.90;258443.00;;;;5073188;28;20633;-60
2023/12/26 09:00:35;;;;;;;0.70;0.70;;;;;231.90;258443.00;;;;5073636;28;20714;-61
2023/12/26 09:03:02;;;;;;;0.70;0.70;;;;;231.90;258443.00;;;;5073446;28;20216;-61
2023/12/26 09:05:29;;;;;;;0.70;0.70;;;;;231.90;258443.00;;;;5072122;28;20533;-62
2023/12/26 09:07:57;;;;;;;0.77;0.77;;;;;231.90;258443.00;;;;5071918;28;20211;-61
2023/12/26 09:10:24;;;;;;;1.40;1.27;;;;;231.90;258443.00;;;;5072846;28;20191;-61
2023/12/26 09:12:52;;;;;;;0.90;0.90;;;;;231.90;258443.00;;;;5072948;28;20570;-61
2023/12/26 09:15:19;;;;;;;0.67;0.67;;;;;231.90;258443.00;;;;5072744;28;20221;-61
2023/12/26 09:17:48;;;;;;;3.13;1.63;;;;;231.90;258443.00;;;;5072878;28;20230;-62
2023/12/26 09:20:16;;;;;;;0.60;0.60;;;;;231.90;258443.00;;;;5073789;28;20599;-61
2023/12/26 09:22:43;;;;;;;1.17;1.10;;;;;231.90;258443.00;;;;5076609;28;20215;-61
2023/12/26 09:25:12;;;;;;;1.57;1.47;;;;;231.90;258443.00;;;;5077163;28;20196;-61
2023/12/26 09:27:42;;;;;;;0.60;0.60;;;;;231.90;258443.00;;;;5076676;28;20195;-60
2023/12/26 09:30:10;;;;;;;0.60;0.60;;;;;231.90;258443.00;;;;5076737;28;20196;-60
2023/12/26 09:32:37;;;;;;;0.80;0.80;;;;;231.90;258443.00;;;;5076558;28;20314;-60
2023/12/26 09:35:07;;;;;;;0.70;0.70;;;;;231.90;258443.00;;;;5076627;28;20212;-60
2023/12/26 09:37:38;;;;;;;0.70;0.70;;;;;231.90;258443.00;;;;5077244;28;20191;-60
2023/12/26 09:40:07;;;;;;;0.50;0.50;;;;;231.90;258443.00;;;;5076687;28;20184;-60
2023/12/26 09:42:35;;;;;;;0.80;0.80;;;;;231.90;258443.00;;;;5076907;28;20211;-60
2023/12/26 09:45:03;;;;;;;1.60;1.03;;;;;231.90;258443.00;;;;5075371;28;20196;-60
2023/12/26 09:47:32;;;;;;;0.80;0.80;;;;;231.90;258443.00;;;;5076750;28;20191;-64
2023/12/26 09:50:00;;;;;;;0.50;0.50;;;;;231.90;258443.00;;;;5077478;28;20196;-63
2023/12/26 09:52:31;;;;;;;0.90;0.90;;;;;231.90;258443.00;;;;5076327;28;20219;-64
2023/12/26 09:54:59;;;;;;;0.60;0.60;;;;;231.90;258443.00;;;;5076456;28;20215;-63
2023/12/26 09:57:27;;;;;;;0.60;0.60;;;;;231.90;258443.00;;;;5076481;28;20630;-62
2023/12/26 09:59:55;;;;;;;1.30;0.80;;;;;231.90;258443.00;;;;5077215;28;20198;-62
2023/12/26 10:02:23;;;;;;;0.60;0.60;;;;;231.90;258443.00;;;;5076607;28;20682;-61
2023/12/26 10:04:50;;;;;;;0.80;0.80;;;;;231.90;258443.00;;;;5076898;28;20194;-61
2023/12/26 10:07:18;;;;;;;0.80;0.80;;;;;231.90;258443.00;;;;5076941;28;20194;-65
2023/12/26 10:09:48;;;;;;;0.60;0.60;;;;;231.90;258443.00;;;;5076594;28;20196;-61
2023/12/26 10:12:15;;;;;;;0.80;0.80;;;;;231.90;258443.00;;;;5075748;28;20211;-61
2023/12/26 10:14:43;;;;;;;0.77;0.77;;;;;231.90;258443.00;;;;5075858;28;20355;-61
2023/12/26 10:17:12;;;;;;;0.60;0.60;;;;;231.90;258443.00;;;;5076114;28;20191;-61
2023/12/26 10:19:40;;;;;;;0.60;0.60;;;;;231.90;258443.00;;;;5075843;28;20277;-61
2023/12/26 10:22:08;;;;;;;0.70;0.70;;;;;231.90;258443.00;;;;5076015;28;20218;-61
2023/12/26 10:24:35;;;;;;;0.83;0.83;;;;;231.90;258443.00;;;;5075768;28;20249;-62
2023/12/26 10:27:04;;;;;;;0.50;0.50;;;;;231.90;258443.00;;;;5076485;28;20199;-61
2023/12/26 10:29:32;;;;;;;0.57;0.57;;;;;231.90;258443.00;;;;5076208;28;20658;-61
2023/12/26 10:32:02;;;;;;;0.50;0.50;;;;;231.90;258443.00;;;;5075489;28;20207;-61
2023/12/26 10:34:30;;;;;;;0.70;0.70;;;;;231.90;258443.00;;;;5074921;28;20191;-61
2023/12/26 10:36:58;;;;;;;0.70;0.70;;;;;231.90;258443.00;;;;5075729;28;20183;-61
2023/12/26 10:39:26;;;;;;;0.50;0.50;;;;;231.90;258443.00;;;;5075879;28;20555;-61
2023/12/26 10:41:54;;;;;;;0.60;0.60;;;;;231.90;258443.00;;;;5075683;28;20310;-61
2023/12/26 10:47:11;;;;;;;0.80;0.80;;;;;231.90;258443.00;;;;5075521;28;20207;-61
2023/12/26 10:49:40;;;;;;;0.53;0.53;;;;;231.90;258443.00;;;;5075333;28;20270;-61
2023/12/26 10:52:11;;;;;;;0.60;0.60;;;;;231.90;258443.00;;;;5073930;28;20276;-61
2023/12/26 10:54:39;;;;;;;0.60;0.60;;;;;231.90;258443.00;;;;5075851;28;20190;-61
2023/12/26 10:57:08;;;;;;;0.53;0.53;;;;;231.90;258443.00;;;;5073926;28;20191;-61
2023/12/26 13:52:14;;;;;;;0.73;0.73;;;;;231.90;258443.00;;;;5072727;28;20265;-62
2023/12/26 13:55:18;;;;;;;13.23;0.90;;;;;231.90;258443.00;;;;5072878;28;20199;-62
2023/12/26 13:58:23;;;;;;;0.60;0.60;;;;;231.90;258443.00;;;;5072768;28;20199;-62
2023/12/26 14:01:28;;;;;;;0.60;0.60;;;;;231.90;258443.00;;;;5072539;28;20199;-62
2023/12/26 14:04:33;;;;;;;0.53;0.53;;;;;231.90;258443.00;;;;5072699;28;20662;-62
2023/12/26 14:07:39;;;;;;;0.60;0.60;;;;;231.90;258443.00;;;;5072545;28;20266;-62
2023/12/26 14:10:45;;;;;;;0.60;0.60;;;;;231.90;258443.00;;;;5076074;28;20199;-62
2023/12/26 14:13:50;;;;;;;0.60;0.60;;;;;231.90;258443.00;;;;5076093;28;20215;-62
2023/12/26 14:16:54;;;;;;;0.60;0.60;;;;;231.90;258443.00;;;;5075810;28;20214;-62
2023/12/26 14:19:59;;;;;;;0.60;0.60;;;;;231.90;258443.00;;;;5075823;28;20214;-62
2023/12/26 14:23:04;;;;;;;0.60;0.60;;;;;231.90;258443.00;;;;5075815;28;20254;-62
2023/12/26 14:26:09;;;;;;;0.70;0.70;;;;;231.90;258443.00;;;;5075977;28;20187;-62
2023/12/26 14:29:13;;;;;;;0.60;0.60;;;;;231.90;258443.00;;;;5075920;28;20684;-62
2023/12/26 14:32:18;;;;;;;0.50;0.50;;;;;231.90;258443.00;;;;5074377;28;20218;-62
2023/12/26 14:35:23;;;;;;;0.50;0.50;;;;;231.90;258443.00;;;;5075814;28;20659;-62
2023/12/26 14:38:27;;;;;;;1.00;0.90;;;;;231.90;258443.00;;;;5075882;28;20201;-62
2023/12/26 14:41:32;;;;;;;0.63;0.63;;;;;231.90;258443.00;;;;5075464;28;20218;-62
2023/12/26 14:44:37;;;;;;;0.70;0.70;;;;;231.90;258443.00;;;;5074068;28;20199;-62
2023/12/26 14:47:42;;;;;;;0.80;0.80;;;;;231.90;258443.00;;;;5075326;28;20545;-62
2023/12/26 14:50:46;;;;;;;0.50;0.50;;;;;231.90;258443.00;;;;5075428;28;20264;-62
2023/12/26 14:53:51;;;;;;;0.60;0.60;;;;;231.90;258443.00;;;;5075701;28;20211;-62
2023/12/26 14:56:55;;;;;;;0.67;0.67;;;;;231.90;258443.00;;;;5075622;28;20208;-62
2023/12/26 15:00:00;;;;;;;0.83;0.83;;;;;231.90;258443.00;;;;5075344;28;20195;-62
2023/12/26 15:02:29;;;;;;;0.93;0.93;;;;;231.90;258443.00;;;;5075431;28;20222;-62
2023/12/26 15:04:57;;;;;;;0.60;0.60;;;;;231.90;258443.00;;;;5073739;28;20709;-62
2023/12/26 15:07:25;;;;;;;0.60;0.60;;;;;231.90;258443.00;;;;5074938;28;20352;-62
2023/12/26 15:09:52;;;;;;;0.50;0.50;;;;;231.90;258443.00;;;;5075199;28;20278;-62
2023/12/26 15:12:20;;;;;;;0.60;0.60;;;;;231.90;258443.00;;;;5075101;28;20570;-62